createdAt,value
2022-11-24T00:02:31.405Z,3.80
2022-11-24T00:05:38.439Z,3.55
2022-11-24T00:08:42.253Z,2.40
2022-11-24T00:11:44.561Z,2.95
2022-11-24T00:14:47.133Z,3.03
2022-11-24T00:17:49.356Z,4.03
2022-11-24T00:20:54.621Z,3.65
2022-11-24T00:23:57.377Z,3.17
2022-11-24T00:26:59.586Z,3.20
2022-11-24T00:30:01.865Z,2.63
2022-11-24T00:33:04.213Z,2.67
2022-11-24T00:36:06.569Z,3.05
2022-11-24T00:39:13.233Z,2.80
2022-11-24T00:42:15.585Z,3.30
2022-11-24T00:45:17.798Z,2.67
2022-11-24T00:48:20.124Z,2.55
2022-11-24T00:51:26.466Z,2.33
2022-11-24T00:54:29.210Z,3.93
2022-11-24T00:57:31.491Z,3.20
2022-11-24T01:00:33.695Z,3.20
2022-11-24T01:03:36.807Z,2.88
2022-11-24T01:06:39.106Z,3.33
2022-11-24T01:09:43.241Z,3.27
2022-11-24T01:12:45.446Z,3.42
2022-11-24T01:15:47.696Z,2.70
2022-11-24T01:18:50.701Z,2.67
2022-11-24T01:21:53.439Z,3.22
2022-11-24T01:24:55.684Z,3.23
2022-11-24T01:27:57.882Z,3.70
2022-11-24T01:31:01.653Z,2.60
2022-11-24T01:34:04.066Z,2.75
2022-11-24T01:37:06.356Z,3.58
2022-11-24T01:40:09.463Z,2.77
2022-11-24T01:43:21.700Z,2.75
2022-11-24T01:46:36.058Z,2.85
2022-11-24T01:49:54.660Z,2.92
2022-11-24T01:52:57.303Z,3.55
2022-11-24T01:55:59.815Z,3.27
2022-11-24T01:59:05.003Z,3.22
2022-11-24T02:02:08.017Z,2.92
2022-11-24T02:05:19.367Z,2.80
2022-11-24T02:08:30.587Z,2.83
2022-11-24T02:11:39.639Z,3.30
2022-11-24T02:14:43.196Z,2.90
2022-11-24T02:17:45.493Z,3.50
2022-11-24T02:20:47.781Z,3.35
2022-11-24T02:24:09.562Z,3.25
2022-11-24T02:27:12.002Z,2.40
2022-11-24T02:30:14.415Z,2.65
2022-11-24T02:33:17.302Z,3.25
2022-11-24T02:36:19.500Z,2.67
2022-11-24T02:39:21.705Z,2.60
2022-11-24T02:42:26.323Z,2.90
2022-11-24T02:45:29.374Z,2.92
2022-11-24T02:48:31.591Z,2.53
2022-11-24T02:51:34.525Z,3.05
2022-11-24T02:54:37.158Z,3.17
2022-11-24T02:57:39.575Z,3.23
2022-11-24T03:00:41.979Z,3.10
2022-11-24T03:03:44.183Z,3.17
2022-11-24T03:06:46.373Z,2.88
2022-11-24T03:09:48.857Z,3.58
2022-11-24T03:12:51.165Z,3.30
2022-11-24T03:15:53.600Z,2.85
2022-11-24T03:18:56.168Z,2.60
2022-11-24T03:21:58.419Z,3.25
2022-11-24T03:25:01.049Z,2.80
2022-11-24T03:28:03.507Z,3.20
2022-11-24T03:31:07.367Z,3.22
2022-11-24T03:34:09.707Z,3.40
2022-11-24T03:37:12.061Z,3.08
2022-11-24T03:40:14.728Z,3.05
2022-11-24T03:43:17.089Z,3.20
2022-11-24T03:46:19.436Z,2.92
2022-11-24T03:49:22.068Z,3.83
2022-11-24T03:52:26.596Z,2.78
2022-11-24T03:55:28.904Z,3.50
2022-11-24T03:58:31.732Z,3.20
2022-11-24T04:01:34.059Z,2.63
2022-11-24T04:04:36.395Z,3.53
2022-11-24T04:07:38.764Z,3.65
2022-11-24T04:10:41.261Z,2.85
2022-11-24T04:13:47.522Z,3.33
2022-11-24T04:16:49.865Z,3.65
2022-11-24T04:19:52.116Z,3.65
2022-11-24T04:22:54.304Z,3.50
2022-11-24T04:25:56.556Z,4.32
2022-11-24T04:28:58.747Z,4.10
2022-11-24T04:32:00.989Z,3.72
2022-11-24T04:35:04.576Z,3.17
2022-11-24T04:38:06.940Z,3.42
2022-11-24T04:41:09.415Z,4.20
2022-11-24T04:44:11.608Z,3.93
2022-11-24T04:47:25.247Z,4.00
2022-11-24T04:50:27.580Z,4.30
2022-11-24T04:53:29.793Z,3.95
2022-11-24T04:56:31.996Z,4.45
2022-11-24T04:59:34.291Z,3.97
2022-11-24T05:02:36.518Z,4.75
2022-11-24T05:05:38.774Z,3.80
2022-11-24T05:08:40.997Z,4.35
2022-11-24T05:11:44.008Z,4.82
2022-11-24T05:14:46.269Z,4.53
2022-11-24T05:17:48.553Z,5.32
2022-11-24T05:20:50.810Z,4.35
2022-11-24T05:23:53.115Z,4.05
2022-11-24T05:26:55.385Z,5.32
2022-11-24T05:29:57.664Z,5.00
2022-11-24T05:33:05.761Z,4.57
2022-11-24T05:36:08.568Z,4.68
2022-11-24T05:39:10.821Z,5.35
2022-11-24T05:42:31.696Z,4.53
2022-11-24T05:45:34.083Z,5.30
2022-11-24T05:49:06.958Z,6.00
2022-11-24T05:52:05.625Z,5.63
2022-11-24T05:55:09.203Z,5.45
2022-11-24T05:58:11.480Z,5.70
2022-11-24T06:01:13.768Z,6.97
2022-11-24T06:04:16.265Z,6.43
2022-11-24T06:07:18.887Z,8.63
2022-11-24T06:10:24.105Z,10.70
2022-11-24T06:13:26.417Z,12.05
2022-11-24T06:16:29.142Z,11.63
2022-11-24T06:19:31.749Z,11.82
2022-11-24T06:22:34.029Z,11.45
2022-11-24T06:25:36.420Z,14.68
2022-11-24T06:28:38.799Z,11.65
2022-11-24T06:31:41.156Z,15.20
2022-11-24T06:34:43.658Z,14.93
2022-11-24T06:37:45.971Z,13.48
2022-11-24T06:40:48.270Z,15.55
2022-11-24T06:43:50.626Z,13.77
2022-11-24T06:50:40.919Z,15.48
2022-11-24T06:53:43.211Z,15.30
2022-11-24T06:56:45.516Z,14.75
2022-11-24T06:59:48.116Z,12.75
2022-11-24T07:02:50.541Z,13.63
2022-11-24T07:05:58.208Z,16.88
2022-11-24T07:09:00.510Z,17.08
2022-11-24T07:12:02.842Z,18.13
2022-11-24T07:15:09.500Z,16.50
2022-11-24T07:18:15.171Z,13.10
2022-11-24T07:21:18.193Z,17.23
2022-11-24T07:24:20.813Z,16.92
2022-11-24T07:27:23.569Z,16.70
2022-11-24T07:30:28.361Z,20.67
2022-11-24T07:36:51.169Z,23.30
2022-11-24T07:39:53.385Z,16.00
2022-11-24T07:42:55.710Z,17.60
2022-11-24T07:46:01.885Z,15.50
2022-11-24T07:49:04.181Z,14.63
2022-11-24T07:52:08.586Z,13.10
2022-11-24T07:55:11.074Z,16.85
2022-11-24T07:58:13.360Z,13.65
2022-11-24T08:01:17.841Z,17.40
2022-11-24T08:04:20.214Z,13.67
2022-11-24T08:07:22.663Z,15.10
2022-11-24T08:10:24.979Z,16.70
2022-11-24T08:13:27.252Z,18.25
2022-11-24T08:16:29.571Z,15.35
2022-11-24T08:19:32.443Z,13.17
2022-11-24T08:22:34.809Z,16.92
2022-11-24T08:25:37.180Z,14.68
2022-11-24T08:28:39.572Z,19.65
2022-11-24T08:31:42.239Z,14.20
2022-11-24T08:34:44.570Z,15.23
2022-11-24T08:37:47.421Z,19.10
2022-11-24T08:40:49.703Z,19.13
2022-11-24T08:43:52.042Z,16.00
2022-11-24T08:46:54.737Z,19.58
2022-11-24T08:49:57.056Z,19.03
2022-11-24T08:52:59.365Z,15.95
2022-11-24T08:56:02.920Z,17.08
2022-11-24T08:59:05.521Z,15.38
2022-11-24T09:02:12.537Z,17.88
2022-11-24T09:05:43.686Z,16.50
2022-11-24T09:08:38.604Z,17.88
2022-11-24T09:11:40.988Z,20.58
2022-11-24T09:14:43.326Z,17.85
2022-11-24T09:17:48.833Z,20.98
2022-11-24T09:20:51.248Z,15.90
2022-11-24T09:23:54.596Z,20.23
2022-11-24T09:26:57.139Z,15.98
2022-11-24T09:29:59.511Z,17.92
2022-11-24T09:33:01.771Z,17.38
2022-11-24T09:36:04.830Z,15.20
2022-11-24T09:39:07.340Z,17.15
2022-11-24T09:42:37.501Z,15.25
2022-11-24T09:46:04.901Z,17.58
2022-11-24T09:49:16.760Z,14.38
2022-11-24T09:52:36.494Z,16.53
2022-11-24T09:55:56.367Z,15.30
2022-11-24T09:59:06.575Z,18.92
2022-11-24T10:02:13.366Z,18.25
2022-11-24T10:05:15.790Z,20.35
2022-11-24T10:08:35.416Z,17.67
2022-11-24T10:11:56.694Z,21.05
2022-11-24T10:15:22.607Z,19.50
2022-11-24T10:18:43.646Z,18.85
2022-11-24T10:21:57.589Z,22.35
2022-11-24T10:25:09.298Z,21.20
2022-11-24T10:28:15.085Z,20.60
2022-11-24T10:31:44.693Z,18.85
2022-11-24T10:34:51.509Z,25.98
2022-11-24T10:38:11.823Z,21.75
2022-11-24T10:42:09.500Z,23.07
2022-11-24T10:45:16.424Z,16.45
2022-11-24T10:49:27.675Z,20.85
2022-11-24T10:52:34.978Z,22.73
2022-11-24T10:55:58.133Z,20.50
2022-11-24T10:59:22.521Z,17.70
2022-11-24T11:02:37.330Z,23.05
2022-11-24T11:11:18.687Z,22.50
2022-11-24T11:15:23.697Z,25.00
2022-11-24T11:18:32.855Z,18.73
2022-11-24T11:21:38.015Z,17.27
2022-11-24T11:38:50.799Z,20.60
2022-11-24T11:43:00.789Z,19.15
2022-11-24T11:46:17.021Z,22.17
2022-11-24T11:50:20.798Z,21.13
2022-11-24T11:53:29.022Z,21.00
2022-11-24T11:56:36.179Z,20.07
2022-11-24T11:59:51.879Z,21.23
2022-11-24T12:03:15.413Z,23.58
2022-11-24T12:07:14.673Z,16.63
2022-11-24T12:20:48.492Z,19.08
2022-11-24T12:24:42.008Z,17.95
2022-11-24T12:27:50.559Z,25.25
2022-11-24T12:31:01.927Z,16.98
2022-11-24T12:34:26.504Z,27.20
2022-11-24T12:37:47.500Z,23.55
2022-11-24T12:41:43.960Z,18.58
2022-11-24T12:45:13.168Z,23.77
2022-11-24T12:48:43.417Z,19.85
2022-11-24T12:51:53.584Z,19.13
2022-11-24T12:54:56.928Z,26.05
2022-11-24T12:58:00.322Z,21.05
2022-11-24T13:01:18.744Z,23.48
2022-11-24T13:04:35.828Z,23.42
2022-11-24T13:07:47.590Z,25.27
2022-11-24T13:11:22.410Z,24.83
2022-11-24T13:14:34.164Z,24.05
2022-11-24T13:17:59.493Z,17.77
2022-11-24T13:21:31.259Z,19.10
2022-11-24T13:24:37.020Z,21.30
2022-11-24T13:27:42.202Z,20.40
2022-11-24T13:30:55.273Z,22.67
2022-11-24T13:33:57.857Z,21.42
2022-11-24T13:37:26.723Z,21.48
2022-11-24T13:40:22.756Z,19.43
2022-11-24T13:43:25.502Z,20.05
2022-11-24T13:47:00.205Z,20.17
2022-11-24T13:50:13.840Z,20.90
2022-11-24T13:53:27.775Z,16.38
2022-11-24T13:56:31.134Z,18.50
2022-11-24T13:59:35.388Z,18.50
2022-11-24T14:02:37.744Z,13.85
2022-11-24T14:05:47.096Z,17.27
2022-11-24T14:08:49.655Z,14.82
2022-11-24T14:12:20.905Z,14.87
2022-11-24T14:15:25.975Z,18.35
2022-11-24T14:18:31.813Z,17.65
2022-11-24T14:21:38.267Z,14.57
2022-11-24T14:24:43.751Z,17.33
2022-11-24T14:27:46.463Z,17.03
2022-11-24T14:30:48.956Z,16.40
2022-11-24T14:34:23.589Z,16.48
2022-11-24T14:37:26.259Z,15.73
2022-11-24T14:40:49.961Z,18.00
2022-11-24T14:44:19.168Z,21.40
2022-11-24T14:47:30.825Z,16.40
2022-11-24T14:50:33.937Z,18.27
2022-11-24T14:53:36.807Z,14.18
2022-11-24T14:56:40.181Z,15.85
2022-11-24T14:59:42.419Z,17.07
2022-11-24T15:02:52.057Z,17.00
2022-11-24T15:06:00.744Z,20.63
2022-11-24T15:09:06.251Z,13.77
2022-11-24T15:12:19.471Z,19.00
2022-11-24T15:15:30.598Z,17.03
2022-11-24T15:18:55.180Z,17.85
2022-11-24T15:21:57.495Z,17.50
2022-11-24T15:25:04.284Z,22.58
2022-11-24T15:28:08.417Z,14.40
2022-11-24T15:31:12.962Z,24.50
2022-11-24T15:34:15.512Z,14.85
2022-11-24T15:37:17.778Z,18.95
2022-11-24T15:40:20.144Z,16.95
2022-11-24T15:43:39.363Z,18.88
2022-11-24T15:46:41.739Z,16.83
2022-11-24T15:49:44.076Z,17.10
2022-11-24T15:52:47.591Z,15.20
2022-11-24T15:55:50.513Z,22.23
2022-11-24T15:58:53.179Z,17.38
2022-11-24T16:01:55.542Z,13.50
2022-11-24T16:04:57.880Z,20.60
2022-11-24T16:08:00.257Z,15.57
2022-11-24T16:11:02.662Z,15.48
2022-11-24T16:14:04.971Z,14.43
2022-11-24T16:17:07.499Z,18.10
2022-11-24T16:20:10.294Z,13.20
2022-11-24T16:23:12.636Z,16.25
2022-11-24T16:26:14.919Z,15.15
2022-11-24T16:29:17.211Z,17.58
2022-11-24T16:32:19.453Z,14.33
2022-11-24T16:35:21.801Z,14.85
2022-11-24T16:38:24.362Z,13.63
2022-11-24T16:41:26.671Z,16.35
2022-11-24T16:44:28.913Z,16.10
2022-11-24T16:47:31.224Z,14.73
2022-11-24T16:50:33.529Z,13.75
2022-11-24T16:53:36.664Z,14.55
2022-11-24T16:56:38.935Z,12.80
2022-11-24T16:59:43.322Z,15.95
2022-11-24T17:02:46.566Z,14.00
2022-11-24T17:06:00.341Z,15.50
2022-11-24T17:09:02.681Z,13.85
2022-11-24T17:12:05.417Z,14.82
2022-11-24T17:15:31.817Z,13.88
2022-11-24T17:18:30.572Z,12.93
2022-11-24T17:21:33.329Z,12.93
2022-11-24T17:24:35.893Z,12.73
2022-11-24T17:27:38.455Z,14.15
2022-11-24T17:30:40.732Z,13.50
2022-11-24T17:33:43.204Z,12.20
2022-11-24T17:36:46.257Z,11.88
2022-11-24T17:40:05.996Z,13.80
2022-11-24T17:43:10.805Z,13.85
2022-11-24T17:46:13.080Z,13.50
2022-11-24T17:49:15.409Z,9.87
2022-11-24T17:52:18.542Z,12.77
2022-11-24T17:55:21.154Z,12.52
2022-11-24T17:58:23.463Z,12.93
2022-11-24T18:01:28.702Z,11.48
2022-11-24T18:04:31.144Z,13.67
2022-11-24T18:07:36.080Z,13.57
2022-11-24T18:10:38.832Z,12.98
2022-11-24T18:13:58.480Z,13.52
2022-11-24T18:17:02.836Z,11.75
2022-11-24T18:20:06.008Z,12.83
2022-11-24T18:23:08.428Z,10.80
2022-11-24T18:26:14.917Z,10.50
2022-11-24T18:29:17.273Z,11.07
2022-11-24T18:32:19.567Z,10.50
2022-11-24T18:35:21.833Z,12.37
2022-11-24T18:38:24.629Z,9.45
2022-11-24T18:41:27.277Z,13.85
2022-11-24T18:44:29.624Z,10.40
2022-11-24T18:47:31.920Z,13.13
2022-11-24T18:50:34.387Z,10.83
2022-11-24T18:53:36.686Z,12.02
2022-11-24T18:56:39.007Z,11.77
2022-11-24T18:59:41.513Z,13.40
2022-11-24T19:02:51.195Z,15.43
2022-11-24T19:05:53.486Z,12.77
2022-11-24T19:08:56.022Z,12.07
2022-11-24T19:11:58.405Z,10.63
2022-11-24T19:15:00.696Z,10.55
2022-11-24T19:18:02.987Z,10.80
2022-11-24T19:21:05.609Z,12.43
2022-11-24T19:24:13.343Z,11.70
2022-11-24T19:27:16.807Z,10.50
2022-11-24T19:30:19.545Z,12.70
2022-11-24T19:33:23.709Z,10.55
2022-11-24T19:36:26.376Z,10.40
2022-11-24T19:39:29.955Z,10.35
2022-11-24T19:42:32.335Z,9.60
2022-11-24T19:45:34.694Z,11.10
2022-11-24T19:48:39.518Z,10.88
2022-11-24T19:51:41.844Z,9.30
2022-11-24T19:54:44.282Z,9.70
2022-11-24T19:57:46.654Z,10.93
2022-11-24T20:00:48.981Z,9.75
2022-11-24T20:04:03.431Z,9.73
2022-11-24T20:07:05.795Z,9.57
2022-11-24T20:10:08.627Z,11.00
2022-11-24T20:13:11.032Z,10.40
2022-11-24T20:16:16.083Z,11.10
2022-11-24T20:19:18.895Z,9.85
2022-11-24T20:22:21.149Z,10.87
2022-11-24T20:25:23.424Z,8.95
2022-11-24T20:28:25.747Z,12.48
2022-11-24T20:31:52.706Z,11.23
2022-11-24T20:34:54.916Z,10.35
2022-11-24T20:37:57.789Z,12.30
2022-11-24T20:41:09.223Z,10.10
2022-11-24T20:44:17.425Z,10.05
2022-11-24T20:47:19.678Z,11.77
2022-11-24T20:50:21.925Z,9.25
2022-11-24T20:53:24.253Z,9.17
2022-11-24T20:56:32.464Z,13.30
2022-11-24T20:59:34.876Z,10.43
2022-11-24T21:02:37.249Z,10.77
2022-11-24T21:05:39.486Z,9.52
2022-11-24T21:08:42.445Z,9.33
2022-11-24T21:11:45.137Z,9.82
2022-11-24T21:14:47.428Z,9.00
2022-11-24T21:17:49.704Z,10.55
2022-11-24T21:20:52.038Z,12.05
2022-11-24T21:23:54.330Z,8.40
2022-11-24T21:26:56.593Z,8.98
2022-11-24T21:29:58.893Z,10.25
2022-11-24T21:33:05.608Z,8.77
2022-11-24T21:36:08.386Z,9.13
2022-11-24T21:39:13.464Z,9.77
2022-11-24T21:42:15.915Z,9.10
2022-11-24T21:45:18.245Z,10.95
2022-11-24T21:48:21.014Z,10.38
2022-11-24T21:51:23.341Z,8.90
2022-11-24T21:54:25.761Z,9.80
2022-11-24T21:57:28.456Z,8.80
2022-11-24T22:00:30.725Z,8.93
2022-11-24T22:03:33.070Z,8.18
2022-11-24T22:06:35.426Z,9.75
2022-11-24T22:09:37.757Z,10.63
2022-11-24T22:12:39.995Z,8.85
2022-11-24T22:15:42.540Z,9.30
2022-11-24T22:18:45.754Z,8.68
2022-11-24T22:21:48.312Z,8.65
2022-11-24T22:24:50.812Z,10.87
2022-11-24T22:27:53.155Z,9.60
2022-11-24T22:30:55.447Z,9.90
2022-11-24T22:33:58.947Z,8.77
2022-11-24T22:37:01.208Z,10.15
2022-11-24T22:40:03.997Z,9.97
2022-11-24T22:43:06.250Z,9.57
2022-11-24T22:46:17.636Z,10.25
2022-11-24T22:49:19.902Z,8.35
2022-11-24T22:52:22.227Z,8.43
2022-11-24T22:55:24.581Z,8.30
2022-11-24T22:58:26.906Z,8.90
2022-11-24T23:01:30.902Z,8.57
2022-11-24T23:04:33.432Z,9.05
2022-11-24T23:07:36.217Z,9.27
2022-11-24T23:10:38.642Z,8.73
2022-11-24T23:13:41.540Z,10.23
2022-11-24T23:16:44.002Z,8.32
2022-11-24T23:19:46.434Z,7.95
2022-11-24T23:22:48.703Z,8.00
2022-11-24T23:25:51.026Z,7.40
2022-11-24T23:28:53.397Z,9.82
2022-11-24T23:31:55.829Z,7.78
2022-11-24T23:34:58.153Z,8.25
2022-11-24T23:38:07.337Z,7.72
2022-11-24T23:41:19.125Z,8.77
2022-11-24T23:44:22.194Z,9.38
2022-11-24T23:47:24.522Z,8.02
2022-11-24T23:50:26.788Z,8.45
2022-11-24T23:53:31.700Z,8.95
2022-11-24T23:56:34.104Z,8.73
2022-11-24T23:59:36.363Z,8.02
